createdAt,value
2022-11-22T00:00:12.644Z,2.25
2022-11-22T00:03:14.231Z,2.47
2022-11-22T00:06:15.774Z,2.17
2022-11-22T00:09:17.344Z,2.10
2022-11-22T00:12:18.894Z,2.17
2022-11-22T00:15:20.481Z,2.10
2022-11-22T00:18:21.963Z,2.03
2022-11-22T00:21:23.532Z,1.63
2022-11-22T00:24:25.059Z,2.53
2022-11-22T00:27:27.018Z,2.42
2022-11-22T00:30:28.763Z,2.20
2022-11-22T00:33:30.480Z,2.42
2022-11-22T00:36:32.004Z,2.30
2022-11-22T00:39:33.608Z,2.60
2022-11-22T00:42:35.170Z,2.13
2022-11-22T00:45:36.697Z,1.92
2022-11-22T00:48:38.342Z,1.75
2022-11-22T00:51:40.459Z,2.22
2022-11-22T00:54:42.005Z,3.05
2022-11-22T00:57:43.518Z,2.30
2022-11-22T01:00:45.158Z,2.25
2022-11-22T01:03:46.836Z,2.47
2022-11-22T01:06:48.374Z,2.88
2022-11-22T01:09:49.998Z,2.40
2022-11-22T01:12:51.499Z,2.78
2022-11-22T01:15:53.455Z,2.88
2022-11-22T01:18:55.083Z,3.05
2022-11-22T01:21:56.782Z,2.97
2022-11-22T01:24:58.344Z,2.65
2022-11-22T01:27:59.901Z,2.90
2022-11-22T01:31:01.453Z,3.17
2022-11-22T01:34:05.293Z,2.92
2022-11-22T01:37:07.163Z,3.03
2022-11-22T01:40:11.053Z,3.65
2022-11-22T01:43:21.498Z,2.92
2022-11-22T01:46:37.382Z,3.70
2022-11-22T01:49:41.991Z,2.95
2022-11-22T01:52:43.512Z,3.03
2022-11-22T01:55:45.754Z,3.40
2022-11-22T01:58:51.744Z,4.00
2022-11-22T02:01:54.173Z,3.60
2022-11-22T02:04:58.436Z,4.10
2022-11-22T02:08:05.896Z,3.10
2022-11-22T02:11:09.578Z,3.33
2022-11-22T02:14:12.208Z,3.50
2022-11-22T02:17:13.803Z,3.30
2022-11-22T02:20:17.269Z,3.80
2022-11-22T02:23:48.031Z,3.22
2022-11-22T02:26:49.680Z,3.63
2022-11-22T02:29:51.379Z,3.35
2022-11-22T02:32:52.916Z,3.08
2022-11-22T02:35:55.118Z,3.17
2022-11-22T02:38:56.795Z,3.35
2022-11-22T02:41:58.442Z,3.20
2022-11-22T02:44:59.933Z,3.88
2022-11-22T02:48:10.235Z,3.40
2022-11-22T02:51:17.011Z,3.53
2022-11-22T02:54:19.630Z,3.47
2022-11-22T02:57:21.174Z,3.20
2022-11-22T03:00:23.085Z,2.85
2022-11-22T03:03:24.611Z,4.32
2022-11-22T03:06:26.305Z,3.38
2022-11-22T03:09:28.707Z,3.30
2022-11-22T03:12:30.548Z,3.47
2022-11-22T03:15:32.243Z,3.90
2022-11-22T03:18:34.655Z,3.63
2022-11-22T03:21:37.803Z,3.35
2022-11-22T03:24:39.406Z,3.58
2022-11-22T03:27:40.999Z,3.70
2022-11-22T03:30:42.549Z,3.42
2022-11-22T03:33:44.119Z,4.13
2022-11-22T03:36:45.939Z,2.95
2022-11-22T03:39:47.546Z,3.50
2022-11-22T03:42:49.120Z,3.63
2022-11-22T03:45:50.705Z,4.20
2022-11-22T03:48:54.310Z,3.53
2022-11-22T03:51:55.892Z,3.42
2022-11-22T03:54:57.473Z,3.28
2022-11-22T03:57:59.118Z,3.50
2022-11-22T04:01:01.456Z,3.50
2022-11-22T04:04:03.203Z,3.92
2022-11-22T04:07:04.762Z,3.80
2022-11-22T04:10:07.228Z,3.33
2022-11-22T04:13:08.777Z,4.38
2022-11-22T04:16:10.294Z,3.65
2022-11-22T04:19:11.916Z,3.85
2022-11-22T04:22:13.427Z,4.25
2022-11-22T04:25:15.081Z,3.33
2022-11-22T04:28:18.983Z,3.97
2022-11-22T04:31:38.852Z,3.75
2022-11-22T04:34:40.470Z,3.80
2022-11-22T04:37:43.228Z,2.85
2022-11-22T04:40:45.530Z,3.47
2022-11-22T04:44:05.504Z,2.85
2022-11-22T04:47:08.717Z,3.65
2022-11-22T04:50:39.295Z,3.33
2022-11-22T04:53:40.882Z,3.38
2022-11-22T04:56:42.395Z,3.47
2022-11-22T04:59:44.204Z,3.97
2022-11-22T05:02:45.711Z,3.47
2022-11-22T05:05:47.253Z,3.22
2022-11-22T05:08:48.768Z,2.90
2022-11-22T05:11:50.284Z,3.60
2022-11-22T05:14:51.863Z,2.83
2022-11-22T05:17:53.448Z,3.80
2022-11-22T05:20:55.219Z,3.53
2022-11-22T05:23:57.157Z,3.95
2022-11-22T05:26:58.708Z,4.03
2022-11-22T05:30:00.317Z,3.78
2022-11-22T05:33:01.775Z,4.10
2022-11-22T05:36:03.962Z,4.05
2022-11-22T05:39:05.468Z,3.60
2022-11-22T05:42:07.270Z,3.63
2022-11-22T05:45:11.562Z,3.97
2022-11-22T05:48:13.498Z,4.15
2022-11-22T05:51:18.106Z,3.97
2022-11-22T05:54:22.734Z,3.78
2022-11-22T05:57:24.255Z,3.80
2022-11-22T06:00:30.736Z,3.28
2022-11-22T06:03:32.647Z,3.33
2022-11-22T06:06:34.133Z,3.70
2022-11-22T06:09:35.771Z,3.42
2022-11-22T06:12:37.314Z,3.80
2022-11-22T06:15:38.806Z,2.90
2022-11-22T06:18:40.510Z,2.72
2022-11-22T06:21:42.452Z,3.40
2022-11-22T06:24:44.033Z,3.10
2022-11-22T06:27:45.618Z,3.50
2022-11-22T06:30:47.216Z,3.40
2022-11-22T06:33:48.820Z,3.85
2022-11-22T06:36:50.467Z,3.30
2022-11-22T06:39:51.937Z,3.22
2022-11-22T06:42:53.446Z,2.70
2022-11-22T06:45:59.335Z,3.05
2022-11-22T06:49:00.942Z,3.30
2022-11-22T06:52:02.454Z,3.05
2022-11-22T06:55:07.948Z,4.03
2022-11-22T06:58:09.826Z,2.95
2022-11-22T07:01:20.125Z,3.55
2022-11-22T07:04:21.840Z,3.00
2022-11-22T07:07:23.392Z,3.40
2022-11-22T07:10:25.005Z,3.35
2022-11-22T07:13:27.049Z,2.75
2022-11-22T07:16:28.598Z,3.53
2022-11-22T07:19:30.553Z,3.40
2022-11-22T07:22:32.470Z,3.55
2022-11-22T07:25:34.027Z,3.63
2022-11-22T07:28:35.913Z,2.95
2022-11-22T07:31:37.423Z,3.50
2022-11-22T07:34:38.932Z,3.40
2022-11-22T07:37:40.452Z,4.22
2022-11-22T07:40:42.042Z,3.63
2022-11-22T07:43:44.257Z,3.03
2022-11-22T07:46:47.870Z,3.20
2022-11-22T07:49:49.336Z,3.13
2022-11-22T07:53:00.514Z,3.33
2022-11-22T07:56:03.310Z,3.00
2022-11-22T07:59:04.924Z,4.28
2022-11-22T08:02:06.497Z,3.22
2022-11-22T08:05:08.407Z,3.00
2022-11-22T08:08:09.940Z,2.63
2022-11-22T08:11:12.248Z,3.40
2022-11-22T08:14:13.883Z,3.00
2022-11-22T08:17:15.528Z,4.75
2022-11-22T08:20:17.140Z,3.92
2022-11-22T08:23:18.921Z,3.45
2022-11-22T08:26:21.172Z,3.33
2022-11-22T08:29:22.776Z,3.00
2022-11-22T08:32:24.254Z,2.90
2022-11-22T08:35:25.876Z,3.20
2022-11-22T08:38:27.750Z,2.55
2022-11-22T08:41:29.498Z,2.63
2022-11-22T08:44:31.164Z,2.47
2022-11-22T08:47:32.820Z,3.30
2022-11-22T08:50:34.399Z,3.15
2022-11-22T08:53:42.273Z,3.13
2022-11-22T08:56:43.779Z,2.88
2022-11-22T08:59:45.391Z,2.90
2022-11-22T09:02:46.950Z,3.88
2022-11-22T09:12:31.969Z,3.78
2022-11-22T09:15:34.151Z,3.35
2022-11-22T09:18:36.259Z,3.50
2022-11-22T09:21:37.825Z,2.55
2022-11-22T09:24:39.441Z,3.65
2022-11-22T09:27:40.948Z,2.85
2022-11-22T09:30:42.418Z,2.47
2022-11-22T09:33:47.125Z,2.90
2022-11-22T09:36:48.650Z,2.90
2022-11-22T09:39:50.367Z,2.83
2022-11-22T09:43:04.844Z,3.08
2022-11-22T09:46:22.007Z,2.67
2022-11-22T09:49:34.352Z,3.70
2022-11-22T09:52:53.927Z,2.85
2022-11-22T09:56:00.699Z,2.95
2022-11-22T09:59:07.915Z,2.45
2022-11-22T10:02:29.593Z,2.80
2022-11-22T10:05:35.856Z,3.00
2022-11-22T10:08:43.241Z,2.05
2022-11-22T10:12:27.663Z,2.10
2022-11-22T10:15:39.135Z,2.20
2022-11-22T10:18:54.183Z,1.67
2022-11-22T10:21:55.746Z,1.83
2022-11-22T10:25:00.166Z,1.58
2022-11-22T10:28:13.795Z,1.95
2022-11-22T10:31:28.188Z,2.05
2022-11-22T10:34:38.802Z,1.55
2022-11-22T10:38:01.900Z,1.70
2022-11-22T10:41:03.512Z,1.10
2022-11-22T10:44:08.031Z,2.10
2022-11-22T10:47:09.585Z,1.60
2022-11-22T10:50:22.069Z,2.08
2022-11-22T10:53:44.806Z,2.08
2022-11-22T10:56:53.469Z,1.63
2022-11-22T11:00:18.446Z,1.70
2022-11-22T11:03:25.099Z,1.27
2022-11-22T11:06:57.030Z,1.73
2022-11-22T11:13:27.159Z,1.48
2022-11-22T11:16:36.350Z,1.30
2022-11-22T11:19:41.792Z,1.50
2022-11-22T11:26:25.604Z,7.93
2022-11-22T11:29:37.693Z,0.98
2022-11-22T11:32:55.167Z,1.30
2022-11-22T11:36:03.665Z,1.80
2022-11-22T11:39:19.092Z,1.42
2022-11-22T11:42:26.728Z,1.70
2022-11-22T11:45:29.199Z,1.02
2022-11-22T11:48:41.246Z,2.03
2022-11-22T11:51:44.019Z,1.40
2022-11-22T11:54:48.080Z,1.92
2022-11-22T12:00:53.174Z,1.30
2022-11-22T12:04:01.924Z,1.10
2022-11-22T12:07:16.813Z,1.75
2022-11-22T12:10:41.185Z,1.30
2022-11-22T12:17:28.414Z,1.27
2022-11-22T12:20:41.724Z,1.35
2022-11-22T12:24:41.309Z,1.42
2022-11-22T12:27:32.737Z,1.02
2022-11-22T12:30:34.870Z,1.55
2022-11-22T12:33:46.648Z,1.27
2022-11-22T12:36:56.389Z,1.55
2022-11-22T12:40:03.039Z,1.48
2022-11-22T12:43:12.115Z,1.30
2022-11-22T12:46:19.863Z,1.67
2022-11-22T12:49:30.540Z,1.20
2022-11-22T12:52:39.829Z,1.35
2022-11-22T12:56:10.801Z,1.67
2022-11-22T12:59:34.795Z,1.48
2022-11-22T13:02:46.901Z,1.77
2022-11-22T13:05:58.027Z,1.73
2022-11-22T13:09:05.120Z,1.63
2022-11-22T13:12:13.733Z,1.70
2022-11-22T13:15:25.755Z,1.60
2022-11-22T13:18:32.499Z,1.98
2022-11-22T13:22:09.307Z,2.75
2022-11-22T13:25:10.786Z,1.75
2022-11-22T13:28:25.225Z,2.45
2022-11-22T13:34:28.884Z,2.50
2022-11-22T13:37:36.486Z,2.53
2022-11-22T13:40:52.359Z,1.67
2022-11-22T13:44:15.668Z,1.50
2022-11-22T13:47:17.284Z,1.80
2022-11-22T13:50:40.525Z,2.00
2022-11-22T13:53:46.929Z,1.50
2022-11-22T13:57:00.145Z,2.20
2022-11-22T14:00:14.170Z,1.88
2022-11-22T14:03:15.862Z,1.92
2022-11-22T14:06:23.535Z,1.40
2022-11-22T14:09:43.470Z,2.33
2022-11-22T14:12:54.196Z,1.73
2022-11-22T14:16:21.511Z,1.65
2022-11-22T14:19:41.682Z,1.25
2022-11-22T14:23:06.527Z,1.67
2022-11-22T14:26:28.258Z,2.20
2022-11-22T14:29:53.491Z,2.30
2022-11-22T14:33:04.907Z,1.55
2022-11-22T14:36:06.501Z,2.10
2022-11-22T14:39:45.032Z,1.95
2022-11-22T14:42:50.678Z,2.55
2022-11-22T14:45:55.375Z,2.15
2022-11-22T14:49:04.599Z,2.38
2022-11-22T14:52:20.080Z,2.53
2022-11-22T14:55:26.538Z,2.28
2022-11-22T14:58:30.042Z,2.78
2022-11-22T15:01:56.508Z,2.15
2022-11-22T15:09:22.562Z,2.40
2022-11-22T15:09:46.451Z,2.55
2022-11-22T15:13:17.543Z,1.83
2022-11-22T15:58:03.139Z,2.97
2022-11-22T16:01:19.459Z,3.33
2022-11-22T16:04:34.885Z,2.22
2022-11-22T16:07:39.416Z,2.17
2022-11-22T16:10:42.559Z,2.60
2022-11-22T16:13:44.173Z,2.70
2022-11-22T16:16:45.630Z,3.17
2022-11-22T16:19:47.300Z,2.72
2022-11-22T16:23:10.477Z,2.67
2022-11-22T16:26:17.687Z,3.13
2022-11-22T16:29:32.551Z,2.78
2022-11-22T16:32:34.715Z,2.92
2022-11-22T16:35:36.497Z,2.40
2022-11-22T16:38:38.071Z,3.05
2022-11-22T16:41:39.634Z,2.00
2022-11-22T16:44:41.227Z,2.58
2022-11-22T16:47:43.579Z,2.67
2022-11-22T16:50:47.561Z,2.83
2022-11-22T16:53:50.635Z,2.70
2022-11-22T16:56:52.244Z,2.53
2022-11-22T16:59:54.345Z,3.45
2022-11-22T17:02:56.338Z,2.67
2022-11-22T17:05:57.831Z,2.63
2022-11-22T17:09:00.452Z,2.42
2022-11-22T17:12:02.424Z,2.92
2022-11-22T17:15:04.166Z,2.10
2022-11-22T17:18:05.690Z,2.58
2022-11-22T17:21:24.063Z,3.28
2022-11-22T17:24:25.628Z,3.20
2022-11-22T17:27:27.106Z,2.65
2022-11-22T17:30:28.643Z,2.10
2022-11-22T17:33:30.231Z,2.45
2022-11-22T17:36:34.190Z,1.85
2022-11-22T17:39:38.415Z,2.65
2022-11-22T17:45:43.634Z,2.85
2022-11-22T17:48:52.811Z,2.90
2022-11-22T17:51:54.396Z,3.05
2022-11-22T17:54:58.352Z,2.85
2022-11-22T17:58:03.767Z,2.60
2022-11-22T18:01:07.151Z,2.55
2022-11-22T18:04:08.825Z,2.65
2022-11-22T18:07:13.249Z,2.72
2022-11-22T18:10:17.914Z,2.53
2022-11-22T18:13:21.857Z,2.60
2022-11-22T18:19:30.428Z,2.35
2022-11-22T18:22:32.206Z,2.65
2022-11-22T18:25:33.777Z,2.45
2022-11-22T18:28:36.116Z,2.92
2022-11-22T18:31:51.152Z,2.97
2022-11-22T18:34:53.720Z,2.30
2022-11-22T18:37:55.345Z,2.90
2022-11-22T18:41:00.948Z,2.92
2022-11-22T18:44:07.028Z,3.53
2022-11-22T18:47:10.294Z,2.83
2022-11-22T18:53:19.609Z,2.72
2022-11-22T18:56:21.214Z,2.95
2022-11-22T18:59:22.941Z,2.10
2022-11-22T19:02:25.900Z,2.60
2022-11-22T19:05:27.709Z,2.63
2022-11-22T19:08:29.230Z,2.33
2022-11-22T19:11:32.042Z,2.50
2022-11-22T19:14:33.910Z,3.35
2022-11-22T19:17:39.840Z,1.95
2022-11-22T19:20:55.288Z,2.80
2022-11-22T19:23:57.620Z,2.72
2022-11-22T19:26:59.843Z,2.60
2022-11-22T19:30:01.771Z,2.28
2022-11-22T19:33:03.443Z,2.05
2022-11-22T19:36:07.897Z,2.13
2022-11-22T19:39:14.979Z,2.80
2022-11-22T19:42:17.707Z,2.95
2022-11-22T19:45:19.329Z,2.70
2022-11-22T19:48:20.956Z,2.17
2022-11-22T19:51:23.664Z,2.65
2022-11-22T19:54:25.273Z,2.72
2022-11-22T19:57:26.791Z,3.20
2022-11-22T20:00:34.805Z,2.45
2022-11-22T20:03:38.527Z,2.33
2022-11-22T20:06:40.335Z,2.28
2022-11-22T20:09:41.887Z,1.90
2022-11-22T20:12:43.990Z,2.55
2022-11-22T20:15:45.568Z,2.38
2022-11-22T20:18:47.330Z,2.92
2022-11-22T20:21:49.517Z,2.90
2022-11-22T20:24:51.395Z,2.55
2022-11-22T20:27:53.063Z,2.65
2022-11-22T20:31:14.781Z,2.58
2022-11-22T20:34:16.386Z,2.40
2022-11-22T20:37:17.959Z,2.10
2022-11-22T20:40:19.967Z,2.00
2022-11-22T20:43:21.522Z,2.03
2022-11-22T20:46:25.754Z,2.15
2022-11-22T20:52:29.713Z,3.08
2022-11-22T20:55:31.231Z,3.08
2022-11-22T20:58:33.155Z,3.10
2022-11-22T21:01:34.864Z,2.08
2022-11-22T21:04:36.826Z,2.38
2022-11-22T21:07:38.301Z,1.92
2022-11-22T21:10:39.792Z,2.20
2022-11-22T21:13:42.744Z,2.20
2022-11-22T21:16:44.300Z,2.30
2022-11-22T21:19:45.838Z,2.47
2022-11-22T21:22:52.378Z,2.20
2022-11-22T21:25:53.863Z,2.25
2022-11-22T21:28:56.198Z,2.42
2022-11-22T21:31:58.051Z,2.35
2022-11-22T21:34:59.511Z,2.80
2022-11-22T21:38:00.983Z,1.77
2022-11-22T21:41:24.309Z,2.40
2022-11-22T21:44:26.335Z,2.88
2022-11-22T21:47:27.850Z,2.45
2022-11-22T21:50:29.339Z,3.08
2022-11-22T21:53:31.595Z,2.33
2022-11-22T21:56:33.178Z,2.50
2022-11-22T21:59:35.694Z,2.88
2022-11-22T22:02:37.177Z,3.30
2022-11-22T22:05:38.707Z,2.63
2022-11-22T22:08:40.799Z,2.17
2022-11-22T22:11:45.555Z,2.25
2022-11-22T22:14:47.393Z,2.40
2022-11-22T22:17:52.519Z,3.28
2022-11-22T22:21:02.002Z,2.95
2022-11-22T22:24:03.936Z,2.50
2022-11-22T22:27:05.392Z,2.17
2022-11-22T22:30:08.730Z,2.63
2022-11-22T22:33:10.172Z,2.28
2022-11-22T22:36:11.763Z,2.70
2022-11-22T22:39:13.262Z,2.38
2022-11-22T22:42:15.244Z,2.88
2022-11-22T22:45:16.745Z,2.28
2022-11-22T22:48:19.023Z,2.60
2022-11-22T22:51:31.917Z,2.63
2022-11-22T22:54:34.728Z,3.10
2022-11-22T22:57:36.175Z,2.38
2022-11-22T23:00:37.685Z,3.33
2022-11-22T23:03:39.952Z,2.33
2022-11-22T23:06:41.436Z,2.42
2022-11-22T23:09:42.963Z,3.33
2022-11-22T23:12:44.398Z,2.47
2022-11-22T23:15:58.059Z,2.58
2022-11-22T23:22:01.969Z,2.45
2022-11-22T23:25:03.627Z,2.90
2022-11-22T23:28:06.292Z,3.05
2022-11-22T23:31:12.774Z,2.22
2022-11-22T23:34:14.365Z,2.60
2022-11-22T23:37:16.092Z,2.33
2022-11-22T23:40:17.614Z,2.97
2022-11-22T23:43:19.176Z,3.05
2022-11-22T23:46:21.489Z,3.13
2022-11-22T23:49:22.931Z,2.92
2022-11-22T23:52:24.363Z,2.78
2022-11-22T23:55:25.857Z,2.63
2022-11-22T23:58:29.903Z,2.50
